createdAt,value
2024-02-15T00:00:01.105Z,70.57
2024-02-15T00:02:32.236Z,70.65
2024-02-15T00:04:59.368Z,70.75
2024-02-15T00:07:27.514Z,71.28
2024-02-15T00:09:57.293Z,71.32
2024-02-15T00:12:24.299Z,70.51
2024-02-15T00:14:51.764Z,70.61
2024-02-15T00:17:19.367Z,70.77
2024-02-15T00:19:47.988Z,70.49
2024-02-15T00:22:15.257Z,70.72
2024-02-15T00:24:43.913Z,70.95
2024-02-15T00:27:12.383Z,70.57
2024-02-15T00:29:41.632Z,70.74
2024-02-15T00:32:09.382Z,70.58
2024-02-15T00:34:37.432Z,70.49
2024-02-15T00:37:05.792Z,70.32
2024-02-15T00:39:33.141Z,70.66
2024-02-15T00:42:01.614Z,70.86
2024-02-15T00:44:29.103Z,70.22
2024-02-15T00:46:57.229Z,70.62
2024-02-15T00:49:24.722Z,70.32
2024-02-15T00:51:51.939Z,70.54
2024-02-15T00:54:18.980Z,70.31
2024-02-15T00:56:46.178Z,70.26
2024-02-15T00:59:13.216Z,70.05
2024-02-15T01:01:40.295Z,70.17
2024-02-15T01:04:07.469Z,70.23
2024-02-15T01:06:34.886Z,70.56
2024-02-15T01:09:04.950Z,70.39
2024-02-15T01:11:36.947Z,70.73
2024-02-15T01:14:04.646Z,70.18
2024-02-15T01:16:31.941Z,70.26
2024-02-15T01:18:59.372Z,70.74
2024-02-15T01:21:26.960Z,70.20
2024-02-15T01:23:55.129Z,70.36
2024-02-15T01:26:22.377Z,70.40
2024-02-15T01:28:49.622Z,70.79
2024-02-15T01:31:18.611Z,71.52
2024-02-15T01:33:49.467Z,71.14
2024-02-15T01:36:17.837Z,70.88
2024-02-15T01:38:46.135Z,71.58
2024-02-15T01:41:13.406Z,71.04
2024-02-15T01:43:45.994Z,71.38
2024-02-15T01:46:13.389Z,71.26
2024-02-15T01:48:41.959Z,70.65
2024-02-15T01:51:11.454Z,70.49
2024-02-15T01:53:39.971Z,70.46
2024-02-15T01:56:08.248Z,70.69
2024-02-15T01:58:37.344Z,70.60
2024-02-15T02:01:06.452Z,71.42
2024-02-15T02:03:33.672Z,70.88
2024-02-15T02:06:01.991Z,70.98
2024-02-15T02:08:29.237Z,70.87
2024-02-15T02:10:56.297Z,71.40
2024-02-15T02:13:23.555Z,71.43
2024-02-15T02:15:50.916Z,71.27
2024-02-15T02:18:18.107Z,70.96
2024-02-15T02:20:46.894Z,71.01
2024-02-15T02:23:21.298Z,71.31
2024-02-15T02:25:50.324Z,71.67
2024-02-15T02:28:20.191Z,71.79
2024-02-15T02:30:47.755Z,71.57
2024-02-15T02:33:23.375Z,71.71
2024-02-15T02:35:50.785Z,71.42
2024-02-15T02:38:17.993Z,71.88
2024-02-15T02:40:45.214Z,71.87
2024-02-15T02:43:12.254Z,72.00
2024-02-15T02:45:39.606Z,71.59
2024-02-15T02:48:06.974Z,71.87
2024-02-15T02:50:34.417Z,71.77
2024-02-15T02:53:01.590Z,71.93
2024-02-15T02:55:29.148Z,72.39
2024-02-15T02:57:56.639Z,71.81
2024-02-15T03:00:24.315Z,72.88
2024-02-15T03:02:51.607Z,72.98
2024-02-15T03:05:22.368Z,72.34
2024-02-15T03:07:52.806Z,72.32
2024-02-15T03:10:20.318Z,72.70
2024-02-15T03:12:50.249Z,72.93
2024-02-15T03:15:19.452Z,72.67
2024-02-15T03:17:49.408Z,72.67
2024-02-15T03:20:23.509Z,73.17
2024-02-15T03:22:54.662Z,73.02
2024-02-15T03:25:25.198Z,72.90
2024-02-15T03:27:57.127Z,73.19
2024-02-15T03:30:26.616Z,73.54
2024-02-15T03:32:54.617Z,73.34
2024-02-15T03:35:24.392Z,73.26
2024-02-15T03:37:52.297Z,73.95
2024-02-15T03:40:24.248Z,74.36
2024-02-15T03:42:51.727Z,74.78
2024-02-15T03:45:19.026Z,74.51
2024-02-15T03:47:47.769Z,73.97
2024-02-15T03:50:16.373Z,73.72
2024-02-15T03:52:45.037Z,74.40
2024-02-15T03:55:12.212Z,74.10
2024-02-15T03:57:44.943Z,73.83
2024-02-15T04:00:14.971Z,73.97
2024-02-15T04:02:42.862Z,74.28
2024-02-15T04:05:13.780Z,73.75
2024-02-15T04:07:41.256Z,73.70
2024-02-15T04:10:09.766Z,74.18
2024-02-15T04:12:50.117Z,74.14
2024-02-15T04:15:19.103Z,74.74
2024-02-15T04:17:47.226Z,74.41
2024-02-15T04:20:16.596Z,75.11
2024-02-15T04:22:44.895Z,75.36
2024-02-15T04:25:17.695Z,75.16
2024-02-15T04:27:48.044Z,74.21
2024-02-15T04:30:17.255Z,74.14
2024-02-15T04:32:44.874Z,74.26
2024-02-15T04:35:14.789Z,74.14
2024-02-15T04:37:43.153Z,73.94
2024-02-15T04:40:12.117Z,74.00
2024-02-15T04:42:42.063Z,74.13
2024-02-15T04:45:11.860Z,74.41
2024-02-15T04:47:53.799Z,74.92
2024-02-15T04:50:22.248Z,74.96
2024-02-15T04:52:51.167Z,74.66
2024-02-15T04:55:19.209Z,74.81
2024-02-15T04:57:48.613Z,75.08
2024-02-15T05:00:16.656Z,74.99
2024-02-15T05:02:45.823Z,74.70
2024-02-15T05:05:14.768Z,74.91
2024-02-15T05:07:44.533Z,75.47
2024-02-15T05:10:11.983Z,75.40
2024-02-15T05:12:41.501Z,75.29
2024-02-15T05:15:12.715Z,75.42
2024-02-15T05:17:44.544Z,75.42
2024-02-15T05:20:13.429Z,76.04
2024-02-15T05:22:43.930Z,75.76
2024-02-15T05:25:13.777Z,75.91
2024-02-15T05:27:40.956Z,76.13
2024-02-15T05:30:08.632Z,76.23
2024-02-15T05:32:43.078Z,76.20
2024-02-15T05:35:14.055Z,76.58
2024-02-15T05:37:41.174Z,76.20
2024-02-15T05:40:08.776Z,76.02
2024-02-15T05:42:36.176Z,75.94
2024-02-15T05:45:30.803Z,75.97
2024-02-15T05:47:58.049Z,75.80
2024-02-15T05:50:25.730Z,75.39
2024-02-15T05:52:54.285Z,75.40
2024-02-15T05:55:21.438Z,75.09
2024-02-15T05:57:48.550Z,75.23
2024-02-15T06:00:22.715Z,75.05
2024-02-15T06:02:51.925Z,75.21
2024-02-15T06:05:21.345Z,75.00
2024-02-15T06:07:49.002Z,74.91
2024-02-15T06:10:16.909Z,74.91
2024-02-15T06:12:44.405Z,75.09
2024-02-15T06:15:17.116Z,75.77
2024-02-15T06:17:45.802Z,75.28
2024-02-15T06:20:15.373Z,74.44
2024-02-15T06:22:43.433Z,74.68
2024-02-15T06:25:11.708Z,74.55
2024-02-15T06:27:42.024Z,74.00
2024-02-15T06:30:29.878Z,74.15
2024-02-15T06:33:15.508Z,75.16
2024-02-15T06:36:01.978Z,74.12
2024-02-15T06:38:47.747Z,74.86
2024-02-15T06:41:15.108Z,74.22
2024-02-15T06:43:42.673Z,73.97
2024-02-15T06:46:11.958Z,73.98
2024-02-15T06:48:39.440Z,74.12
2024-02-15T06:51:07.432Z,74.79
2024-02-15T06:53:34.783Z,73.81
2024-02-15T06:56:03.811Z,73.75
2024-02-15T06:58:31.198Z,73.77
2024-02-15T07:00:58.230Z,73.53
2024-02-15T07:03:25.443Z,73.49
2024-02-15T07:05:52.571Z,73.60
2024-02-15T07:08:19.767Z,73.69
2024-02-15T07:10:46.950Z,73.88
2024-02-15T07:13:13.933Z,74.01
2024-02-15T07:15:41.227Z,74.01
2024-02-15T07:18:08.679Z,74.13
2024-02-15T07:20:35.972Z,74.18
2024-02-15T07:23:03.217Z,73.52
2024-02-15T07:25:30.413Z,73.22
2024-02-15T07:27:57.870Z,73.32
2024-02-15T07:30:26.406Z,73.08
2024-02-15T07:32:53.900Z,72.06
2024-02-15T07:35:21.302Z,72.08
2024-02-15T07:38:00.030Z,72.03
2024-02-15T07:40:29.818Z,72.57
2024-02-15T07:43:00.201Z,72.39
2024-02-15T07:45:27.457Z,71.92
2024-02-15T07:47:54.903Z,72.08
2024-02-15T07:50:24.255Z,71.51
2024-02-15T07:52:52.420Z,71.53
2024-02-15T07:55:19.536Z,71.87
2024-02-15T07:57:49.605Z,71.90
2024-02-15T08:00:17.890Z,71.80
2024-02-15T08:02:45.658Z,71.15
2024-02-15T08:05:15.276Z,70.52
2024-02-15T08:07:45.435Z,70.04
2024-02-15T08:10:16.673Z,69.87
2024-02-15T08:12:44.904Z,69.43
2024-02-15T08:15:15.995Z,68.69
2024-02-15T08:17:44.587Z,68.69
2024-02-15T08:20:12.616Z,70.08
2024-02-15T08:22:40.524Z,68.77
2024-02-15T08:25:11.484Z,68.39
2024-02-15T08:27:46.643Z,69.56
2024-02-15T08:30:15.009Z,69.33
2024-02-15T08:32:43.710Z,69.01
2024-02-15T08:35:12.493Z,67.51
2024-02-15T08:37:41.112Z,67.57
2024-02-15T08:40:14.753Z,66.68
2024-02-15T08:42:43.133Z,66.12
2024-02-15T08:45:11.854Z,66.98
2024-02-15T08:47:43.623Z,66.59
2024-02-15T08:50:13.003Z,66.59
2024-02-15T08:52:41.558Z,66.48
2024-02-15T08:55:10.810Z,66.76
2024-02-15T08:57:41.725Z,66.42
2024-02-15T09:00:15.109Z,66.29
2024-02-15T09:02:46.665Z,66.16
2024-02-15T09:05:18.620Z,65.73
2024-02-15T09:07:51.470Z,65.92
2024-02-15T09:10:19.039Z,64.41
2024-02-15T09:12:50.521Z,65.38
2024-02-15T09:15:18.942Z,64.59
2024-02-15T09:17:47.696Z,63.07
2024-02-15T09:20:21.813Z,63.05
2024-02-15T09:22:51.071Z,63.48
2024-02-15T09:25:19.531Z,62.80
2024-02-15T09:27:47.175Z,61.74
2024-02-15T09:30:15.219Z,61.10
2024-02-15T09:32:43.786Z,61.09
2024-02-15T09:35:15.647Z,60.52
2024-02-15T09:37:51.365Z,60.07
2024-02-15T09:40:21.013Z,59.58
2024-02-15T09:42:49.492Z,59.00
2024-02-15T09:45:18.676Z,58.85
2024-02-15T09:47:46.634Z,58.54
2024-02-15T09:50:17.216Z,57.77
2024-02-15T09:52:52.752Z,57.03
2024-02-15T09:55:21.201Z,57.84
2024-02-15T09:57:48.643Z,57.76
2024-02-15T10:00:18.797Z,58.26
2024-02-15T10:02:49.037Z,58.31
2024-02-15T10:05:18.618Z,58.01
2024-02-15T10:07:46.927Z,57.60
2024-02-15T10:10:18.364Z,58.53
2024-02-15T10:12:49.333Z,57.79
2024-02-15T10:15:41.895Z,58.04
2024-02-15T10:18:12.554Z,56.63
2024-02-15T10:20:41.832Z,56.57
2024-02-15T10:23:12.725Z,56.26
2024-02-15T10:25:42.131Z,56.11
2024-02-15T10:28:13.355Z,56.79
2024-02-15T10:30:46.993Z,56.12
2024-02-15T10:33:25.517Z,56.10
2024-02-15T10:36:15.703Z,57.02
2024-02-15T10:38:43.480Z,56.15
2024-02-15T10:41:12.488Z,54.80
2024-02-15T10:43:44.772Z,56.84
2024-02-15T10:46:14.224Z,54.91
2024-02-15T10:48:41.664Z,53.46
2024-02-15T10:51:12.186Z,53.99
2024-02-15T10:53:51.829Z,52.75
2024-02-15T10:56:21.020Z,53.71
2024-02-15T10:59:15.102Z,53.38
2024-02-15T11:01:45.175Z,53.24
2024-02-15T11:04:16.723Z,53.83
2024-02-15T11:06:45.766Z,53.93
2024-02-15T11:09:14.760Z,53.97
2024-02-15T11:11:43.075Z,54.01
2024-02-15T11:14:30.558Z,53.31
2024-02-15T11:16:59.148Z,52.44
2024-02-15T11:19:38.596Z,52.96
2024-02-15T11:22:15.736Z,53.23
2024-02-15T11:24:54.151Z,52.41
2024-02-15T11:27:31.386Z,52.89
2024-02-15T11:30:05.729Z,52.48
2024-02-15T11:32:57.595Z,51.50
2024-02-15T11:35:26.577Z,51.76
2024-02-15T11:38:05.518Z,51.07
2024-02-15T11:40:45.488Z,52.37
2024-02-15T11:43:51.466Z,52.43
2024-02-15T11:46:20.870Z,52.29
2024-02-15T11:48:49.585Z,51.36
2024-02-15T11:51:30.044Z,52.29
2024-02-15T11:54:08.062Z,52.44
2024-02-15T11:57:11.837Z,52.12
2024-02-15T12:00:15.689Z,51.30
2024-02-15T12:03:01.350Z,51.08
2024-02-15T12:05:46.965Z,51.59
2024-02-15T12:08:32.977Z,53.42
2024-02-15T12:11:19.819Z,53.32
2024-02-15T12:14:47.093Z,52.69
2024-02-15T12:17:56.516Z,52.68
2024-02-15T12:20:26.653Z,52.78
2024-02-15T12:22:54.560Z,52.17
2024-02-15T12:25:25.772Z,51.94
2024-02-15T12:28:01.008Z,51.50
2024-02-15T12:30:34.860Z,51.00
2024-02-15T12:33:13.096Z,51.43
2024-02-15T12:35:40.398Z,51.21
2024-02-15T12:38:09.739Z,51.67
2024-02-15T12:40:37.983Z,52.27
2024-02-15T12:43:13.389Z,51.96
2024-02-15T12:45:42.486Z,52.01
2024-02-15T12:48:11.967Z,51.57
2024-02-15T12:50:41.235Z,51.03
2024-02-15T12:53:09.588Z,51.37
2024-02-15T12:55:39.461Z,50.77
2024-02-15T12:58:16.535Z,50.84
2024-02-15T13:00:45.072Z,49.77
2024-02-15T13:03:15.171Z,50.27
2024-02-15T13:05:42.781Z,49.59
2024-02-15T13:08:15.577Z,50.82
2024-02-15T13:10:43.441Z,50.09
2024-02-15T13:13:11.378Z,49.70
2024-02-15T13:15:39.870Z,48.46
2024-02-15T13:18:11.243Z,48.83
2024-02-15T13:20:39.408Z,49.27
2024-02-15T13:23:15.651Z,49.21
2024-02-15T13:25:44.646Z,49.79
2024-02-15T13:28:14.716Z,49.89
2024-02-15T13:30:46.285Z,49.32
2024-02-15T13:33:15.039Z,49.66
2024-02-15T13:35:42.708Z,50.35
2024-02-15T13:38:16.306Z,50.45
2024-02-15T13:40:46.182Z,49.37
2024-02-15T13:43:13.694Z,50.41
2024-02-15T13:45:42.108Z,50.71
2024-02-15T13:48:10.690Z,51.17
2024-02-15T13:50:40.482Z,50.42
2024-02-15T13:53:10.696Z,49.83
2024-02-15T13:55:38.715Z,49.76
2024-02-15T13:58:05.899Z,49.47
2024-02-15T14:00:35.870Z,50.11
2024-02-15T14:03:07.517Z,49.41
2024-02-15T14:05:35.256Z,49.50
2024-02-15T14:08:04.500Z,49.48
2024-02-15T14:10:36.720Z,49.74
2024-02-15T14:13:13.040Z,50.10
2024-02-15T14:15:41.110Z,50.56
2024-02-15T14:18:15.709Z,50.84
2024-02-15T14:20:44.593Z,51.57
2024-02-15T14:23:15.535Z,51.22
2024-02-15T14:25:43.764Z,51.17
2024-02-15T14:28:11.064Z,50.22
2024-02-15T14:30:58.743Z,50.18
2024-02-15T14:33:33.117Z,49.83
2024-02-15T14:36:02.041Z,49.83
2024-02-15T14:38:30.253Z,49.75
2024-02-15T14:40:59.584Z,49.67
2024-02-15T14:43:28.583Z,50.03
2024-02-15T14:45:58.233Z,49.67
2024-02-15T14:48:26.964Z,49.94
2024-02-15T14:50:57.337Z,50.40
2024-02-15T14:53:25.440Z,49.90
2024-02-15T14:55:53.858Z,50.23
2024-02-15T14:58:23.942Z,50.43
2024-02-15T15:00:51.539Z,50.51
2024-02-15T15:03:19.083Z,50.29
2024-02-15T15:06:05.441Z,50.11
2024-02-15T15:08:52.107Z,50.50
2024-02-15T15:11:38.604Z,50.57
2024-02-15T15:14:07.081Z,50.43
2024-02-15T15:16:35.505Z,51.53
2024-02-15T15:19:04.477Z,51.86
2024-02-15T15:21:50.760Z,51.03
2024-02-15T15:24:17.929Z,51.14
2024-02-15T15:26:45.198Z,51.65
2024-02-15T15:29:12.867Z,52.48
2024-02-15T15:31:40.140Z,53.23
2024-02-15T15:34:08.302Z,53.51
2024-02-15T15:36:35.901Z,52.27
2024-02-15T15:39:09.856Z,53.04
2024-02-15T15:41:38.847Z,53.20
2024-02-15T15:44:06.176Z,53.26
2024-02-15T15:46:34.670Z,53.10
2024-02-15T15:49:02.391Z,54.24
2024-02-15T15:51:29.586Z,54.39
2024-02-15T15:53:56.789Z,55.86
2024-02-15T15:56:23.871Z,56.05
2024-02-15T15:58:54.478Z,55.82
2024-02-15T16:01:22.156Z,55.75
2024-02-15T16:03:50.992Z,56.03
2024-02-15T16:06:18.577Z,56.11
2024-02-15T16:08:47.322Z,56.39
2024-02-15T16:11:17.981Z,56.49
2024-02-15T16:13:47.718Z,57.12
2024-02-15T16:16:15.524Z,57.17
2024-02-15T16:18:43.524Z,57.62
2024-02-15T16:21:10.766Z,57.97
2024-02-15T16:23:37.875Z,58.20
2024-02-15T16:26:07.252Z,58.03
2024-02-15T16:28:34.575Z,59.88
2024-02-15T16:31:02.997Z,58.95
2024-02-15T16:33:30.328Z,58.70
2024-02-15T16:35:57.787Z,58.64
2024-02-15T16:38:24.885Z,58.77
2024-02-15T16:40:51.968Z,59.45
2024-02-15T16:43:19.256Z,59.87
2024-02-15T16:45:47.610Z,59.75
2024-02-15T16:48:14.801Z,59.95
2024-02-15T16:50:43.126Z,59.72
2024-02-15T16:53:10.438Z,59.95
2024-02-15T16:55:37.496Z,59.96
2024-02-15T16:58:09.506Z,60.03
2024-02-15T17:00:39.687Z,60.50
2024-02-15T17:03:07.230Z,60.74
2024-02-15T17:05:36.982Z,60.81
2024-02-15T17:08:07.648Z,61.22
2024-02-15T17:10:36.781Z,61.29
2024-02-15T17:13:05.531Z,61.83
2024-02-15T17:15:33.024Z,61.91
2024-02-15T17:18:00.333Z,62.46
2024-02-15T17:20:28.067Z,61.98
2024-02-15T17:22:55.196Z,62.18
2024-02-15T17:25:26.649Z,62.20
2024-02-15T17:27:56.819Z,62.15
2024-02-15T17:30:25.021Z,62.77
2024-02-15T17:32:53.563Z,63.95
2024-02-15T17:35:22.574Z,63.95
2024-02-15T17:37:50.506Z,63.71
2024-02-15T17:40:18.939Z,63.35
2024-02-15T17:42:46.215Z,63.56
2024-02-15T17:45:14.730Z,63.87
2024-02-15T17:47:45.752Z,64.13
2024-02-15T17:50:19.323Z,64.78
2024-02-15T17:52:47.152Z,65.11
2024-02-15T17:55:16.314Z,65.59
2024-02-15T17:57:47.618Z,65.94
2024-02-15T18:00:21.234Z,66.38
2024-02-15T18:02:50.556Z,66.73
2024-02-15T18:05:21.465Z,66.55
2024-02-15T18:07:52.097Z,66.04
2024-02-15T18:10:22.962Z,66.79
2024-02-15T18:12:50.633Z,68.05
2024-02-15T18:15:30.534Z,67.91
2024-02-15T18:17:58.699Z,68.68
2024-02-15T18:20:27.344Z,69.22
2024-02-15T18:22:55.175Z,68.99
2024-02-15T18:25:22.459Z,69.72
2024-02-15T18:27:49.755Z,68.96
2024-02-15T18:30:20.047Z,69.09
2024-02-15T18:32:49.044Z,69.69
2024-02-15T18:35:17.887Z,69.38
2024-02-15T18:37:47.794Z,69.75
2024-02-15T18:40:22.591Z,70.29
2024-02-15T18:42:55.880Z,69.65
2024-02-15T18:45:23.302Z,70.29
2024-02-15T18:47:51.697Z,70.70
2024-02-15T18:50:21.591Z,71.17
2024-02-15T18:52:49.392Z,72.34
2024-02-15T18:55:16.989Z,71.31
2024-02-15T18:57:45.433Z,72.23
2024-02-15T19:00:23.582Z,72.39
2024-02-15T19:03:00.530Z,71.91
2024-02-15T19:05:29.353Z,72.56
2024-02-15T19:07:56.757Z,72.86
2024-02-15T19:10:24.257Z,73.37
2024-02-15T19:12:54.969Z,73.37
2024-02-15T19:15:24.435Z,73.42
2024-02-15T19:17:52.565Z,73.89
2024-02-15T19:20:20.050Z,73.90
2024-02-15T19:22:47.563Z,72.94
2024-02-15T19:25:22.138Z,73.25
2024-02-15T19:27:50.005Z,73.42
2024-02-15T19:30:19.865Z,73.24
2024-02-15T19:32:50.373Z,72.79
2024-02-15T19:35:19.908Z,72.67
2024-02-15T19:37:48.008Z,73.09
2024-02-15T19:40:19.068Z,73.76
2024-02-15T19:42:48.731Z,73.80
2024-02-15T19:45:20.029Z,73.87
2024-02-15T19:47:52.938Z,74.15
2024-02-15T19:50:24.549Z,74.23
2024-02-15T19:52:51.812Z,74.62
2024-02-15T19:55:18.900Z,74.30
2024-02-15T19:57:45.950Z,74.37
2024-02-15T20:00:15.238Z,74.72
2024-02-15T20:02:45.110Z,74.79
2024-02-15T20:05:13.348Z,74.99
2024-02-15T20:07:41.036Z,75.36
2024-02-15T20:10:09.239Z,75.84
2024-02-15T20:12:37.711Z,75.99
2024-02-15T20:15:09.468Z,75.99
2024-02-15T20:17:37.933Z,75.92
2024-02-15T20:20:09.873Z,76.19
2024-02-15T20:22:40.216Z,77.28
2024-02-15T20:25:10.814Z,77.29
2024-02-15T20:27:38.575Z,77.13
2024-02-15T20:30:06.592Z,77.11
2024-02-15T20:32:33.825Z,77.88
2024-02-15T20:35:01.060Z,79.24
2024-02-15T20:37:28.215Z,78.26
2024-02-15T20:39:55.223Z,78.23
2024-02-15T20:42:22.865Z,78.63
2024-02-15T20:44:50.378Z,78.77
2024-02-15T20:47:20.214Z,78.90
2024-02-15T20:49:47.810Z,79.03
2024-02-15T20:52:15.026Z,79.25
2024-02-15T20:54:42.380Z,79.99
2024-02-15T20:57:16.186Z,80.40
2024-02-15T20:59:43.829Z,80.58
2024-02-15T21:02:11.439Z,81.02
2024-02-15T21:04:39.148Z,81.17
2024-02-15T21:07:06.879Z,81.46
2024-02-15T21:09:34.226Z,81.45
2024-02-15T21:12:01.421Z,81.28
2024-02-15T21:14:28.508Z,81.97
2024-02-15T21:16:55.652Z,81.85
2024-02-15T21:19:22.740Z,81.99
2024-02-15T21:21:49.924Z,82.29
2024-02-15T21:24:17.086Z,82.50
2024-02-15T21:26:45.285Z,82.75
2024-02-15T21:29:16.693Z,82.60
2024-02-15T21:31:52.096Z,83.91
2024-02-15T21:34:19.581Z,83.81
2024-02-15T21:36:46.976Z,83.80
2024-02-15T21:39:14.281Z,83.97
2024-02-15T21:41:41.381Z,83.74
2024-02-15T21:44:12.284Z,83.42
2024-02-15T21:46:40.950Z,83.75
2024-02-15T21:49:08.322Z,84.01
2024-02-15T21:51:35.480Z,84.25
2024-02-15T21:54:02.661Z,84.82
2024-02-15T21:56:29.913Z,84.94
2024-02-15T21:58:56.929Z,84.92
2024-02-15T22:01:23.909Z,85.42
2024-02-15T22:03:52.061Z,85.70
2024-02-15T22:06:19.246Z,85.61
2024-02-15T22:08:46.828Z,85.36
2024-02-15T22:11:13.857Z,86.16
2024-02-15T22:13:43.718Z,86.18
2024-02-15T22:16:11.384Z,85.58
2024-02-15T22:18:38.725Z,85.63
2024-02-15T22:21:06.306Z,86.02
2024-02-15T22:23:33.364Z,86.18
2024-02-15T22:26:00.350Z,86.02
2024-02-15T22:28:27.571Z,86.03
2024-02-15T22:30:54.693Z,86.28
2024-02-15T22:33:24.957Z,86.74
2024-02-15T22:35:52.310Z,86.40
2024-02-15T22:38:19.776Z,86.45
2024-02-15T22:40:46.979Z,86.06
2024-02-15T22:43:14.243Z,86.76
2024-02-15T22:45:41.312Z,86.96
2024-02-15T22:48:08.599Z,87.04
2024-02-15T22:50:35.786Z,87.51
2024-02-15T22:53:03.612Z,87.38
2024-02-15T22:55:30.946Z,87.20
2024-02-15T22:57:59.157Z,87.37
2024-02-15T23:00:27.443Z,87.60
2024-02-15T23:02:54.840Z,87.48
2024-02-15T23:05:23.440Z,87.69
2024-02-15T23:07:51.664Z,88.04
2024-02-15T23:10:18.975Z,88.35
2024-02-15T23:12:46.057Z,88.44
2024-02-15T23:15:16.232Z,88.08
2024-02-15T23:17:43.742Z,88.54
2024-02-15T23:20:13.212Z,88.50
2024-02-15T23:22:43.046Z,88.00
2024-02-15T23:25:10.510Z,87.79
2024-02-15T23:27:37.554Z,87.77
2024-02-15T23:30:06.021Z,88.02
2024-02-15T23:32:36.123Z,88.49
2024-02-15T23:35:04.761Z,88.23
2024-02-15T23:37:50.302Z,88.43
2024-02-15T23:40:20.662Z,87.85
2024-02-15T23:42:47.688Z,87.16
2024-02-15T23:45:14.844Z,86.41
2024-02-15T23:47:42.148Z,86.69
2024-02-15T23:50:16.900Z,86.15
2024-02-15T23:52:47.053Z,85.25
2024-02-15T23:55:15.976Z,85.93
2024-02-15T23:57:44.590Z,86.46
